Back to top

Lander, WY weather

Hunt Field Airport, Lander, WY: 11/16/2019 18:53
Visibility10 statute milesclear sky
View 7-Day Forecast
Area Summary
Sky/CloudsSky Clear
Weather [last 24 hours]None [rain began 10:28; snow ended 13:32 ]
Pressure30.24 in.Hg (1024 hPa)
Dew Point30 °F (-1.1 °C)
Relative Humidity92.3 %
Last 24-Hour Precip.0.4 in. (10.16 mm)
Reading TimePrecipitation
6-hr ending 11/16@16:530.33 in. (8.382 mm)
6-hr ending 11/16@10:53Trace
Temperature32 °F (0 °C)red thermometer
Reading TimeMinimum to Maximum Temperature
6-hr ending 11/16@16:5332 °F to 37.9 °F (0 °C to 3.3 °C)
6-hr ending 11/16@10:5335.1 °F to 48 °F (1.7 °C to 8.9 °C)
6-hr ending 11/16@04:5337 °F to 55 °F (2.8 °C to 12.8 °C)
6-hr ending 11/15@22:5337.9 °F to 55.9 °F (3.3 °C to 13.3 °C)
24-hr ending 11/15@23:5328 °F to 55.9 °F (-2.2 °C to 13.3 °C)
Wind0 MPH (0 KT) green arrow pointing at 0 degrees
Wind FromNorth (000 Degrees)
Rolling 24-hr Peak Wind32.2 MPH (28 KT) on 11/15@22:41
Rolling 24-hr Peak Wind FromNorthwest (320 Degrees)
Twilight Begins06:37Sunshine Yesterday
Sunrise07:07N/A
Sunset16:52
Twilight Ends17:22
METARKLND 170153Z AUTO 00000KT 10SM CLR 00/M01 A3024 RMK AO2 SLP253 T00001011
Tags: